Ardmore, South Dakota
Current Conditions -  °F | °C
As of 12:53 AM on Friday 21 Nov 2014 (Local Time) from KCUT Reporting Station
Clear Clear  
Wind Chill: 32°   Ceiling: Unl
Heat Index: 32°   Visibility: 10mi
Dew Point: 19°   Wind: 3mph
Humidity: 59%   Direction: 270°W
Pressure: 29.86"   Gusts: NA
Location:  43.1994°N, 103.759°W
Report Text: KCUT 210753Z AUTO 27003KT 10SM CLR 00/M07 A2986 RMK AO2 SLP113 T00001072
Loading
Personal Weather Stations






























Interactive Weather Map New forecast layout! Learn more

10-Day Weather Forecast

Advertisements
Track Severe Weather on mobile